CW6020 Teulada ES current weather conditions

sailwx.info

Wind from 135 at 0 knots gusting 2

Air temperature 11.7° C
Dewpoint 6.4° C

Last reported at 2019-Mar-22 07:56 UTC.
Time now 2019-Mar-22 08:37 UTC

Location: N 38°44' E 000°06'.
View on Google Maps.

See reports from other nearby stations

  
Tides and Currents Weather Stations Pressure Air Temp Water Temp Dewpoint Dewpoint Depression Visibility Wind Speed Wind Dir Waves Ship Positions
date/time (UTC)wind fromknots sea level pressurealtimeterstation pressurevisibilityair tempwater tempwave heightnotes
2019-Mar-22 07:56 135 0 gusting 2 11.7
2019-Mar-22 07:41 292 2 gusting 5 11.1
2019-Mar-22 07:31 180 2 gusting 5 11.1
2019-Mar-22 07:16 022 4 gusting 6 10.6
2019-Mar-22 07:01 270 2 gusting 4 10.6
2019-Mar-22 06:51 270 2 gusting 5 10.6
2019-Mar-22 06:36 315 3 gusting 5 10.0
2019-Mar-22 06:21 270 5 gusting 9 10.0
2019-Mar-22 06:11 10.0
2019-Mar-22 05:56 292 2 gusting 5 10.0
2019-Mar-22 05:41 292 3 gusting 6 10.0
2019-Mar-22 05:31 315 1 gusting 2 10.0
2019-Mar-22 05:16 315 1 gusting 4 10.0
2019-Mar-22 05:01 270 2 gusting 5 10.0
2019-Mar-22 04:51 315 1 gusting 2 10.0
2019-Mar-22 04:36 315 1 gusting 3 10.0
2019-Mar-22 04:21 10.0
2019-Mar-22 04:11 315 4 gusting 7 10.0
2019-Mar-22 04:01 10.0
2019-Mar-22 03:51 315 2 gusting 3 10.0
2019-Mar-22 03:36 315 2 gusting 4 10.0
2019-Mar-22 03:21 315 7 gusting 13 10.0
2019-Mar-22 03:11 090 1 gusting 3 10.6
2019-Mar-22 02:56 10.6
2019-Mar-22 02:41 045 3 gusting 5 10.6
2019-Mar-22 02:31 270 3 gusting 6 11.1
2019-Mar-22 02:16 090 2 gusting 5 11.1
2019-Mar-22 02:01 045 1 gusting 5 11.1
2019-Mar-22 01:51 045 3 gusting 5 11.1
2019-Mar-22 01:36 270 1 gusting 4 11.1
2019-Mar-22 01:21 090 2 gusting 5 11.1
2019-Mar-22 01:11 045 1 gusting 2 11.1
2019-Mar-22 00:56 045 3 gusting 9 11.1
2019-Mar-22 00:41 225 2 gusting 5 11.1
2019-Mar-22 00:31 135 2 gusting 4 11.1
2019-Mar-22 00:16 090 2 gusting 6 11.1
2019-Mar-22 00:01 135 2 gusting 6 10.6
2019-Mar-21 23:51 270 1 gusting 3 10.6
2019-Mar-21 23:41 090 1 gusting 2 10.6
2019-Mar-21 23:31 180 1 gusting 2 10.6
2019-Mar-21 23:16 225 1 gusting 3 10.6
2019-Mar-21 23:00 315 1 gusting 2 10.6
2019-Mar-21 22:46 315 0 gusting 2 10.6
2019-Mar-21 22:36 225 10.6
2019-Mar-21 22:26 225 0 gusting 2 10.6
2019-Mar-21 22:16 270 3 gusting 5 10.6
2019-Mar-21 22:06 270 0 gusting 1 10.6
2019-Mar-21 21:56 11.1
2019-Mar-21 21:47 11.1
2019-Mar-21 21:36 315 11.1
2019-Mar-21 21:26 180 0 gusting 2 11.1
2019-Mar-21 21:16 270 11.1
2019-Mar-21 21:06 090 1 gusting 2 11.1
2019-Mar-21 20:56 045 1 gusting 3 11.7
2019-Mar-21 20:46 090 2 gusting 4 11.7
2019-Mar-21 20:36 292 1 gusting 4 11.7
2019-Mar-21 20:27 180 2 gusting 6 11.7
2019-Mar-21 20:16 180 2 gusting 5 11.7
2019-Mar-21 20:06 11.7
2019-Mar-21 19:56 090 1 gusting 2 11.7
2019-Mar-21 19:46 225 2 gusting 5 11.7
2019-Mar-21 19:36 135 3 gusting 7 11.7
2019-Mar-21 19:26 135 0 gusting 2 11.7
2019-Mar-21 19:16 045 3 gusting 7 11.7
2019-Mar-21 19:06 135 1 gusting 2 11.7
2019-Mar-21 18:56 045 1 gusting 3 12.2
2019-Mar-21 18:46 135 2 gusting 7 12.2
2019-Mar-21 18:36 315 2 gusting 4 12.2
2019-Mar-21 18:26 225 2 gusting 5 12.2
2019-Mar-21 18:16 315 2 gusting 5 12.8
2019-Mar-21 18:06 270 1 gusting 4 12.8
2019-Mar-21 17:56 315 3 gusting 6 12.8
2019-Mar-21 17:46 090 3 gusting 5 13.3
2019-Mar-21 17:36 135 1 gusting 3 13.3
2019-Mar-21 17:26 180 2 gusting 7 13.9
2019-Mar-21 17:16 090 1 gusting 4 13.9
2019-Mar-21 17:06 14.4
2019-Mar-21 16:56 090 3 gusting 6 14.4
2019-Mar-21 16:46 135 2 gusting 5 15.0
2019-Mar-21 16:36 315 2 gusting 6 15.0
2019-Mar-21 16:26 022 3 gusting 7 15.6
2019-Mar-21 16:16 135 3 gusting 6 15.6
2019-Mar-21 16:06 045 5 gusting 7 15.6
2019-Mar-21 15:56 135 3 gusting 11 15.6
2019-Mar-21 15:46 15.6
2019-Mar-21 15:36 315 2 gusting 5 15.6
2019-Mar-21 15:26 090 2 gusting 5 15.6
2019-Mar-21 15:16 090 3 gusting 7 15.6
2019-Mar-21 15:06 15.6
2019-Mar-21 14:56 292 4 gusting 8 15.6
2019-Mar-21 14:46 180 2 gusting 6 15.6
2019-Mar-21 14:36 135 5 gusting 10 15.6
2019-Mar-21 14:26 292 4 gusting 7 15.6
2019-Mar-21 14:16 16.1
2019-Mar-21 14:06 315 5 gusting 9 16.1
2019-Mar-21 13:56 315 4 gusting 6 16.1
2019-Mar-21 13:46 090 3 gusting 6 16.7
2019-Mar-21 13:36 135 4 gusting 7 16.7
2019-Mar-21 13:26 045 5 gusting 7 16.7
2019-Mar-21 13:16 16.7
2019-Mar-21 13:06 315 2 gusting 6 16.1
2019-Mar-21 12:56 270 2 gusting 5 16.1
2019-Mar-21 12:46 315 4 gusting 8 16.1
2019-Mar-21 12:36 315 2 gusting 6 16.1
2019-Mar-21 12:26 045 1 gusting 5 16.1
2019-Mar-21 12:16 15.6
2019-Mar-21 12:06 180 5 gusting 10 15.6
2019-Mar-21 11:56 180 4 gusting 9 15.6
2019-Mar-21 11:46 180 1 gusting 3 15.6
2019-Mar-21 11:36 315 2 gusting 6 15.0
2019-Mar-21 11:26 225 1 gusting 2 14.4
2019-Mar-21 11:16 090 5 gusting 7 13.9
2019-Mar-21 11:06 090 4 gusting 7 13.9
2019-Mar-21 10:56 135 4 gusting 6 13.9
2019-Mar-21 10:46 045 2 gusting 5 13.9
2019-Mar-21 10:36 045 2 gusting 3 13.9
2019-Mar-21 10:26 225 2 gusting 4 13.9
2019-Mar-21 10:16 315 3 gusting 6 13.9
2019-Mar-21 10:06 180 1 gusting 5 13.3
2019-Mar-21 09:56 090 5 gusting 7 13.3
2019-Mar-21 09:46 225 5 gusting 7 13.3
2019-Mar-21 09:36 180 2 gusting 5 12.8
2019-Mar-21 09:26 135 5 gusting 9 12.8
2019-Mar-21 09:16 180 4 gusting 6 12.8
2019-Mar-21 09:06 292 2 gusting 6 12.2
2019-Mar-21 08:56 315 4 gusting 6 11.7
2019-Mar-21 08:46 11.1
2019-Mar-21 08:36 10.6
2019-Mar-21 08:26 10.6
2019-Mar-21 08:16 022 3 gusting 6 10.0
2019-Mar-21 08:06 270 1 gusting 2 10.0
2019-Mar-21 07:56 045 1 gusting 2 9.4
2019-Mar-21 07:46 292 1 gusting 3 9.4
2019-Mar-21 07:36 045 1 gusting 2 9.4
2019-Mar-21 07:26 045 5 gusting 9 8.9
2019-Mar-21 07:16 315 4 gusting 7 8.9
2019-Mar-21 07:01 315 3 gusting 5 8.9
2019-Mar-21 06:51 8.9
2019-Mar-21 06:42 225 2 gusting 5 8.9
2019-Mar-21 06:26 8.9
2019-Mar-21 06:21 8.9
2019-Mar-21 06:11 315 0 gusting 2 8.9
2019-Mar-21 06:01 315 8.9
2019-Mar-21 05:51 8.9
2019-Mar-21 05:41 090 2 gusting 5 8.9
2019-Mar-21 05:31 8.9
2019-Mar-21 05:16 315 4 gusting 5 8.9
2019-Mar-21 05:06 315 2 gusting 5 8.9
2019-Mar-21 04:56 292 3 gusting 6 8.9
2019-Mar-21 04:46 8.9
2019-Mar-21 04:36 315 4 gusting 6 8.3
2019-Mar-21 04:26 270 2 gusting 3 8.3
2019-Mar-21 04:16 090 2 gusting 3 8.3
2019-Mar-21 04:06 090 1 gusting 3 8.3
2019-Mar-21 03:56 180 4 gusting 7 8.3
2019-Mar-21 03:46 045 2 gusting 5 8.3
2019-Mar-21 03:36 135 0 gusting 2 8.3
2019-Mar-21 03:26 090 1 gusting 4 8.3
2019-Mar-21 03:16 292 2 gusting 3 8.3
2019-Mar-21 03:06 315 1 gusting 2 8.3
2019-Mar-21 02:56 315 2 gusting 5 8.3
2019-Mar-21 02:46 315 1 gusting 5 8.3
2019-Mar-21 02:36 090 0 gusting 2 8.3
2019-Mar-21 02:26 315 5 gusting 8 8.3
2019-Mar-21 02:16 8.3
2019-Mar-21 02:06 8.3
2019-Mar-21 01:36 045 8.3
2019-Mar-21 01:26 090 1 gusting 2 8.3
2019-Mar-21 01:16 8.3
2019-Mar-21 01:06 8.3
2019-Mar-21 00:56 8.3
2019-Mar-21 00:46 8.3
2019-Mar-21 00:36 8.3
2019-Mar-21 00:26 315 8.3
2019-Mar-21 00:16 090 8.3
2019-Mar-21 00:06 8.3
2019-Mar-20 23:56 045 8.3
2019-Mar-20 23:46 8.9
2019-Mar-20 23:36 337 8.9
2019-Mar-20 23:26 292 1 gusting 2 8.9
2019-Mar-20 23:16 045 0 gusting 2 8.9
2019-Mar-20 23:06 8.9
2019-Mar-20 22:56 135 0 gusting 2 8.9
2019-Mar-20 22:46 315 1 gusting 2 8.9
2019-Mar-20 22:36 022 0 gusting 2 8.9
2019-Mar-20 22:26 045 0 gusting 2 8.9
2019-Mar-20 22:16 315 0 gusting 1 8.9
2019-Mar-20 22:06 337 0 gusting 1 8.9
2019-Mar-20 21:56 090 8.9
2019-Mar-20 21:40 8.9
2019-Mar-20 21:26 9.4
2019-Mar-20 21:16 045 0 gusting 2 9.4
2019-Mar-20 21:06 9.4
2019-Mar-20 20:56 9.4
2019-Mar-20 20:46 225 1 gusting 2 10.0
2019-Mar-20 20:36 315 1 gusting 3 10.0
2019-Mar-20 20:20 292 2 gusting 5 10.0
2019-Mar-20 20:06 225 1 gusting 2 10.0
2019-Mar-20 19:56 10.0
2019-Mar-20 19:46 045 10.0
2019-Mar-20 19:36 10.0
2019-Mar-20 19:26 315 2 gusting 4 10.0
2019-Mar-20 19:16 090 0 gusting 2 10.0
2019-Mar-20 19:00 180 1 gusting 3 10.0
2019-Mar-20 18:46 090 1 gusting 3 10.0
2019-Mar-20 18:36 10.6
2019-Mar-20 18:26 337 2 gusting 4 10.6
2019-Mar-20 18:16 225 0 gusting 2 10.6
2019-Mar-20 18:06 090 0 gusting 1 11.1
2019-Mar-20 17:56 315 11.1
2019-Mar-20 17:46 090 1 gusting 2 11.7
2019-Mar-20 17:31 045 0 gusting 2 11.7
2019-Mar-20 17:21 090 0 gusting 2 12.2
2019-Mar-20 17:11 090 1 gusting 4 12.2
2019-Mar-20 17:01 090 1 gusting 5 12.2
2019-Mar-20 16:51 12.2
2019-Mar-20 16:41 045 12.2
2019-Mar-20 16:31 270 0 gusting 1 12.2
2019-Mar-20 16:21 180 1 gusting 3 12.2
2019-Mar-20 16:11 315 2 gusting 4 12.2
2019-Mar-20 15:56 11.7
2019-Mar-20 15:41 045 1 gusting 4 11.7
2019-Mar-20 15:31 090 11.7
2019-Mar-20 15:16 11.7
2019-Mar-20 15:01 11.7
2019-Mar-20 14:51 315 11.1
2019-Mar-20 14:36 270 0 gusting 2 11.1
2019-Mar-20 14:21 315 10.6
2019-Mar-20 14:11 270 2 gusting 5 10.6
2019-Mar-20 13:56 315 1 gusting 2 10.6
2019-Mar-20 13:41 270 1 gusting 4 10.6
2019-Mar-20 13:31 270 1 gusting 4 11.1
2019-Mar-20 13:16 11.1
2019-Mar-20 13:06 225 11.1
2019-Mar-20 12:51 225 11.1
2019-Mar-20 12:41 11.1
2019-Mar-20 12:31 315 0 gusting 2 11.7
2019-Mar-20 12:21 315 0 gusting 2 11.1
2019-Mar-20 12:11 10.6
2019-Mar-20 12:01 10.6
2019-Mar-20 11:51 315 10.0
2019-Mar-20 11:41 315 0 gusting 4 9.4
2019-Mar-20 11:31 8.9
2019-Mar-20 11:21 8.9
2019-Mar-20 11:11 315 0 gusting 2 8.9
2019-Mar-20 11:01 8.9
2019-Mar-20 10:51 337 1 gusting 2 8.9
2019-Mar-20 10:41 270 2 gusting 2 8.9
2019-Mar-20 10:31 9.4
2019-Mar-20 10:21 045 0 gusting 2 9.4
2019-Mar-20 10:11 9.4
2019-Mar-20 10:01 9.4
2019-Mar-20 09:51 8.9
2019-Mar-20 09:41 292 0 gusting 2 8.9
2019-Mar-20 09:26 225 1 gusting 3 8.3
2019-Mar-20 09:16 315 2 gusting 5 8.3
2019-Mar-20 09:01 315 5 gusting 7 7.8
2019-Mar-20 08:51 7.8
2019-Mar-20 08:36 315 2 gusting 3 7.8
2019-Mar-20 08:21 045 7.8
2019-Mar-20 08:11 315 0 gusting 2 7.8